createdAt,value
2019-02-17T00:01:48.685Z,5.53
2019-02-17T00:04:28.852Z,6.67
2019-02-17T00:07:15.159Z,6.30
2019-02-17T00:09:54.304Z,5.93
2019-02-17T00:12:28.262Z,6.03
2019-02-17T00:14:58.853Z,6.60
2019-02-17T00:17:33.569Z,6.50
2019-02-17T00:20:15.414Z,7.00
2019-02-17T00:22:56.967Z,6.57
2019-02-17T00:25:32.522Z,6.80
2019-02-17T00:28:07.960Z,6.80
2019-02-17T00:30:49.097Z,6.73
2019-02-17T00:33:27.547Z,6.77
2019-02-17T00:36:10.633Z,5.97
2019-02-17T00:38:51.697Z,6.53
2019-02-17T00:41:37.211Z,6.27
2019-02-17T00:44:22.079Z,6.10
2019-02-17T00:47:05.466Z,6.23
2019-02-17T00:49:47.085Z,6.57
2019-02-17T00:52:26.979Z,6.90
2019-02-17T00:55:05.937Z,6.30
2019-02-17T00:57:46.780Z,6.40
2019-02-17T01:00:31.593Z,6.97
2019-02-17T01:03:22.820Z,7.23
2019-02-17T01:06:07.476Z,6.23
2019-02-17T01:08:48.230Z,7.10
2019-02-17T01:11:22.920Z,6.67
2019-02-17T01:13:55.022Z,7.10
2019-02-17T01:16:33.730Z,6.87
2019-02-17T01:19:10.928Z,7.57
2019-02-17T01:21:48.381Z,6.60
2019-02-17T01:24:20.738Z,6.17
2019-02-17T01:26:57.432Z,6.13
2019-02-17T01:29:34.689Z,6.57
2019-02-17T01:32:13.062Z,6.10
2019-02-17T01:34:56.576Z,4.87
2019-02-17T01:37:50.475Z,5.60
2019-02-17T01:40:35.234Z,4.60
2019-02-17T01:43:12.275Z,4.37
2019-02-17T01:45:52.314Z,3.80
2019-02-17T01:48:29.570Z,4.43
2019-02-17T01:51:02.766Z,4.87
2019-02-17T01:53:36.369Z,4.60
2019-02-17T01:56:21.125Z,4.93
2019-02-17T01:58:58.078Z,6.17
2019-02-17T02:01:33.807Z,7.17
2019-02-17T02:04:14.408Z,6.60
2019-02-17T02:06:58.613Z,5.73
2019-02-17T02:09:34.841Z,6.10
2019-02-17T02:12:21.953Z,6.13
2019-02-17T02:15:02.710Z,5.77
2019-02-17T02:17:49.110Z,6.57
2019-02-17T02:20:32.673Z,5.37
2019-02-17T02:23:14.300Z,5.63
2019-02-17T02:25:53.922Z,5.77
2019-02-17T02:28:33.462Z,6.43
2019-02-17T02:31:23.943Z,7.27
2019-02-17T02:34:04.213Z,6.70
2019-02-17T02:36:56.395Z,6.40
2019-02-17T02:39:40.103Z,6.93
2019-02-17T02:42:30.182Z,7.10
2019-02-17T02:45:05.381Z,6.70
2019-02-17T02:47:40.722Z,6.23
2019-02-17T02:50:18.889Z,5.67
2019-02-17T02:52:59.522Z,6.00
2019-02-17T02:55:39.735Z,6.83
2019-02-17T02:58:21.003Z,6.47
2019-02-17T03:00:56.997Z,5.97
2019-02-17T03:03:41.316Z,6.10
2019-02-17T03:06:23.126Z,7.17
2019-02-17T03:09:07.131Z,7.10
2019-02-17T03:11:57.987Z,6.83
2019-02-17T03:14:33.363Z,6.80
2019-02-17T03:17:17.905Z,6.50
2019-02-17T03:20:01.105Z,6.47
2019-02-17T03:22:42.840Z,6.60
2019-02-17T03:25:20.331Z,6.40
2019-02-17T03:27:56.385Z,5.90
2019-02-17T03:30:31.629Z,5.20
2019-02-17T03:33:06.702Z,5.37
2019-02-17T03:35:40.400Z,5.90
2019-02-17T03:38:27.713Z,5.20
2019-02-17T03:41:10.534Z,5.40
2019-02-17T03:43:46.549Z,5.40
2019-02-17T03:46:33.222Z,5.53
2019-02-17T03:49:17.251Z,5.70
2019-02-17T03:51:58.801Z,6.33
2019-02-17T03:54:36.136Z,6.67
2019-02-17T03:57:21.686Z,6.10
2019-02-17T04:00:16.488Z,7.07
2019-02-17T04:02:57.351Z,5.27
2019-02-17T04:05:42.148Z,5.70
2019-02-17T04:08:27.015Z,5.60
2019-02-17T04:11:13.264Z,5.20
2019-02-17T04:13:51.469Z,7.20
2019-02-17T04:16:28.524Z,7.10
2019-02-17T04:19:07.018Z,6.50
2019-02-17T04:21:50.666Z,7.03
2019-02-17T04:24:32.919Z,6.37
2019-02-17T04:27:09.084Z,5.80
2019-02-17T04:29:49.288Z,6.00
2019-02-17T04:32:28.087Z,6.57
2019-02-17T04:35:07.717Z,6.37
2019-02-17T04:37:51.926Z,6.10
2019-02-17T04:40:28.495Z,6.30
2019-02-17T04:43:08.527Z,6.83
2019-02-17T04:45:52.310Z,6.33
2019-02-17T04:48:36.834Z,6.97
2019-02-17T04:51:18.489Z,6.17
2019-02-17T04:54:00.179Z,6.97
2019-02-17T04:56:42.315Z,7.07
2019-02-17T04:59:20.772Z,6.57
2019-02-17T05:02:00.242Z,6.43
2019-02-17T05:04:45.092Z,6.47
2019-02-17T05:07:23.685Z,5.50
2019-02-17T05:10:00.483Z,5.30
2019-02-17T05:12:36.558Z,5.30
2019-02-17T05:15:09.649Z,5.83
2019-02-17T05:17:48.615Z,5.77
2019-02-17T05:20:32.648Z,6.37
2019-02-17T05:23:10.126Z,5.47
2019-02-17T05:25:45.427Z,5.37
2019-02-17T05:28:27.080Z,5.63
2019-02-17T05:31:06.339Z,5.57
2019-02-17T05:40:24.914Z,6.37
2019-02-17T05:43:07.415Z,5.70
2019-02-17T05:45:42.166Z,5.83
2019-02-17T05:48:47.112Z,5.80
2019-02-17T05:51:28.271Z,5.93
2019-02-17T05:54:08.666Z,5.07
2019-02-17T05:56:39.851Z,4.83
2019-02-17T05:59:30.761Z,5.03
2019-02-17T06:02:10.963Z,5.50
2019-02-17T06:05:18.072Z,5.23
2019-02-17T06:08:00.821Z,5.80
2019-02-17T06:10:45.263Z,5.53
2019-02-17T06:14:00.011Z,6.37
2019-02-17T06:17:06.552Z,6.13
2019-02-17T06:19:50.037Z,6.20
2019-02-17T06:23:10.532Z,6.07
2019-02-17T06:26:10.047Z,6.20
2019-02-17T06:29:15.449Z,5.90
2019-02-17T06:32:40.924Z,6.07
2019-02-17T06:35:41.714Z,5.80
2019-02-17T06:38:30.654Z,6.37
2019-02-17T06:41:05.548Z,5.37
2019-02-17T06:43:48.123Z,5.60
2019-02-17T06:46:44.460Z,5.83
2019-02-17T06:49:51.461Z,5.47
2019-02-17T06:52:57.868Z,5.40
2019-02-17T06:58:42.414Z,5.73
2019-02-17T07:01:24.467Z,6.20
2019-02-17T07:04:30.130Z,6.00
2019-02-17T07:13:44.495Z,7.07
2019-02-17T07:16:14.294Z,6.73
2019-02-17T07:18:55.160Z,7.77
2019-02-17T07:22:01.148Z,7.07
2019-02-17T07:24:33.684Z,6.90
2019-02-17T07:27:10.354Z,7.60
2019-02-17T07:29:40.974Z,6.57
2019-02-17T07:32:15.677Z,6.50
2019-02-17T07:34:46.223Z,6.40
2019-02-17T07:37:19.276Z,6.47
2019-02-17T07:43:14.658Z,6.70
2019-02-17T07:45:44.528Z,6.97
2019-02-17T07:48:14.681Z,6.87
2019-02-17T07:50:48.162Z,7.53
2019-02-17T07:53:18.032Z,7.77
2019-02-17T07:55:47.905Z,7.23
2019-02-17T07:58:17.830Z,7.80
2019-02-17T08:00:47.949Z,8.23
2019-02-17T08:03:17.758Z,9.27
2019-02-17T08:05:47.690Z,9.80
2019-02-17T08:08:39.651Z,10.03
2019-02-17T08:11:29.777Z,9.83
2019-02-17T08:14:02.733Z,9.70
2019-02-17T08:16:34.053Z,9.30
2019-02-17T08:19:03.875Z,9.53
2019-02-17T08:21:55.837Z,8.73
2019-02-17T08:24:47.360Z,8.33
2019-02-17T08:27:40.798Z,8.53
2019-02-17T08:30:26.471Z,8.80
2019-02-17T08:32:56.268Z,8.63
2019-02-17T08:35:26.182Z,9.60
2019-02-17T08:37:56.964Z,9.87
2019-02-17T08:40:54.377Z,9.37
2019-02-17T08:43:26.718Z,10.33
2019-02-17T08:46:07.011Z,10.50
2019-02-17T08:48:40.500Z,10.60
2019-02-17T08:51:10.542Z,10.87
2019-02-17T08:53:40.980Z,12.20
2019-02-17T08:56:10.877Z,11.40
2019-02-17T08:58:40.891Z,11.07
2019-02-17T09:01:10.950Z,11.43
2019-02-17T09:03:48.347Z,11.37
2019-02-17T09:06:45.043Z,10.27
2019-02-17T09:09:48.440Z,10.97
2019-02-17T09:12:21.413Z,9.73
2019-02-17T09:15:00.053Z,11.03
2019-02-17T09:17:35.427Z,11.80
2019-02-17T09:20:23.108Z,11.43
2019-02-17T09:23:10.405Z,12.83
2019-02-17T09:26:21.543Z,14.07
2019-02-17T09:29:22.758Z,12.13
2019-02-17T09:32:17.659Z,12.47
2019-02-17T09:35:12.556Z,13.03
2019-02-17T09:37:52.684Z,13.37
2019-02-17T09:40:23.241Z,12.03
2019-02-17T09:43:14.032Z,18.77
2019-02-17T09:45:44.406Z,13.30
2019-02-17T09:48:14.652Z,16.83
2019-02-17T09:51:11.459Z,11.37
2019-02-17T09:53:46.467Z,12.23
2019-02-17T09:56:16.440Z,12.87
2019-02-17T09:58:46.658Z,12.00
2019-02-17T10:01:30.329Z,12.23
2019-02-17T10:04:24.379Z,11.57
2019-02-17T10:07:05.399Z,11.33
2019-02-17T10:09:36.569Z,12.20
2019-02-17T10:12:33.964Z,12.00
2019-02-17T10:15:33.606Z,11.33
2019-02-17T10:18:38.962Z,11.57
2019-02-17T10:21:12.971Z,11.93
2019-02-17T10:23:48.823Z,13.33
2019-02-17T10:26:39.585Z,11.60
2019-02-17T10:29:24.846Z,28.37
2019-02-17T10:31:58.853Z,11.47
2019-02-17T10:34:55.467Z,10.80
2019-02-17T10:37:50.774Z,12.63
2019-02-17T10:40:33.092Z,10.73
2019-02-17T10:43:05.170Z,10.30
2019-02-17T10:45:47.581Z,9.40
2019-02-17T10:48:34.157Z,9.87
2019-02-17T10:51:07.085Z,9.83
2019-02-17T10:53:49.299Z,8.97
2019-02-17T10:56:29.404Z,9.87
2019-02-17T10:59:26.782Z,9.20
2019-02-17T11:02:22.461Z,8.87
2019-02-17T11:04:57.527Z,9.97
2019-02-17T11:07:30.135Z,9.50
2019-02-17T11:10:00.842Z,12.60
2019-02-17T11:12:55.620Z,11.63
2019-02-17T11:15:27.378Z,9.43
2019-02-17T11:18:00.385Z,8.17
2019-02-17T11:20:30.203Z,8.77
2019-02-17T11:23:34.615Z,8.17
2019-02-17T11:26:08.879Z,8.70
2019-02-17T11:28:38.692Z,14.77
2019-02-17T11:31:13.422Z,12.13
2019-02-17T11:33:45.157Z,12.73
2019-02-17T11:36:18.863Z,11.70
2019-02-17T11:38:58.354Z,14.00
2019-02-17T11:41:32.236Z,10.63
2019-02-17T11:44:27.087Z,10.20
2019-02-17T11:47:25.491Z,10.93
2019-02-17T11:50:19.607Z,9.00
2019-02-17T11:53:09.659Z,8.90
2019-02-17T11:55:39.540Z,10.20
2019-02-17T11:58:46.181Z,8.07
2019-02-17T12:01:33.537Z,8.57
2019-02-17T12:04:03.725Z,8.80
2019-02-17T12:06:42.367Z,8.03
2019-02-17T12:09:18.179Z,8.50
2019-02-17T12:11:51.190Z,19.47
2019-02-17T12:14:49.583Z,17.83
2019-02-17T12:17:24.536Z,20.13
2019-02-17T12:19:57.906Z,30.63
2019-02-17T12:22:30.528Z,65.57
2019-02-17T12:25:06.976Z,35.83
2019-02-17T12:28:03.003Z,19.63
2019-02-17T12:31:03.547Z,11.37
2019-02-17T12:33:38.155Z,8.57
2019-02-17T12:36:29.260Z,9.23
2019-02-17T12:39:01.712Z,8.77
2019-02-17T12:41:37.037Z,8.00
2019-02-17T12:44:20.076Z,11.10
2019-02-17T12:47:12.752Z,7.90
2019-02-17T12:50:12.691Z,8.07
2019-02-17T12:53:05.539Z,15.83
2019-02-17T12:56:04.376Z,10.30
2019-02-17T12:59:29.586Z,10.90
2019-02-17T13:02:23.375Z,11.97
2019-02-17T13:05:05.092Z,8.80
2019-02-17T13:07:42.903Z,12.10
2019-02-17T13:10:46.619Z,7.73
2019-02-17T13:13:41.030Z,8.77
2019-02-17T13:16:36.730Z,8.23
2019-02-17T13:19:12.289Z,7.60
2019-02-17T13:22:03.215Z,8.57
2019-02-17T13:24:38.096Z,9.93
2019-02-17T13:27:12.286Z,9.20
2019-02-17T13:30:04.061Z,13.43
2019-02-17T13:33:17.960Z,12.80
2019-02-17T13:39:08.105Z,11.13
2019-02-17T13:41:41.289Z,10.07
2019-02-17T13:44:18.606Z,9.57
2019-02-17T13:47:27.008Z,9.43
2019-02-17T13:50:14.853Z,11.53
2019-02-17T13:52:46.825Z,11.27
2019-02-17T13:55:30.129Z,10.70
2019-02-17T13:58:26.766Z,11.57
2019-02-17T14:01:05.446Z,16.13
2019-02-17T14:03:50.919Z,15.70
2019-02-17T14:07:11.968Z,14.57
2019-02-17T14:15:46.547Z,12.13
2019-02-17T14:18:16.730Z,14.10
2019-02-17T14:20:47.011Z,10.80
2019-02-17T14:24:04.076Z,10.10
2019-02-17T14:27:19.496Z,11.07
2019-02-17T14:30:30.248Z,10.47
2019-02-17T14:33:26.866Z,12.17
2019-02-17T14:36:36.841Z,12.17
2019-02-17T14:39:21.116Z,9.93
2019-02-17T14:42:08.097Z,11.10
2019-02-17T14:45:34.861Z,12.63
2019-02-17T14:51:41.792Z,13.67
2019-02-17T14:54:33.015Z,11.70
2019-02-17T14:57:11.052Z,11.47
2019-02-17T14:59:42.473Z,12.40
2019-02-17T15:02:12.383Z,11.27
2019-02-17T15:04:45.110Z,15.27
2019-02-17T15:07:20.819Z,17.37
2019-02-17T15:10:37.259Z,17.53
2019-02-17T15:20:28.957Z,14.40
2019-02-17T15:26:44.195Z,15.20
2019-02-17T15:29:31.707Z,19.07
2019-02-17T15:32:13.498Z,13.00
2019-02-17T15:37:59.372Z,10.80
2019-02-17T15:40:29.873Z,15.73
2019-02-17T15:43:02.218Z,14.50
2019-02-17T15:45:32.258Z,12.03
2019-02-17T15:48:07.152Z,10.33
2019-02-17T15:51:16.834Z,10.43
2019-02-17T15:54:31.645Z,10.60
2019-02-17T16:03:58.606Z,11.10
2019-02-17T16:10:43.031Z,10.93
2019-02-17T16:13:56.296Z,13.53
2019-02-17T16:17:01.901Z,11.97
2019-02-17T16:20:05.768Z,10.90
2019-02-17T16:23:03.434Z,11.57
2019-02-17T16:25:38.825Z,11.00
2019-02-17T16:28:08.678Z,12.43
2019-02-17T16:30:38.555Z,11.87
2019-02-17T16:33:08.441Z,11.10
2019-02-17T16:35:38.361Z,10.80
2019-02-17T16:38:08.138Z,10.00
2019-02-17T16:40:38.069Z,11.83
2019-02-17T16:43:07.915Z,13.13
2019-02-17T16:45:37.705Z,15.50
2019-02-17T16:48:09.143Z,18.07
2019-02-17T16:50:38.901Z,13.07
2019-02-17T16:53:08.820Z,13.20
2019-02-17T16:55:38.647Z,14.90
2019-02-17T16:58:08.507Z,16.43
2019-02-17T17:00:38.337Z,18.83
2019-02-17T17:03:08.163Z,18.73
2019-02-17T17:05:37.970Z,13.17
2019-02-17T17:08:07.867Z,13.03
2019-02-17T17:10:37.673Z,13.23
2019-02-17T17:13:07.479Z,9.40
2019-02-17T17:15:37.406Z,13.90
2019-02-17T17:18:07.275Z,13.47
2019-02-17T17:20:38.416Z,12.83
2019-02-17T17:23:08.283Z,14.23
2019-02-17T17:25:38.102Z,12.13
2019-02-17T17:28:08.711Z,13.53
2019-02-17T17:30:41.612Z,16.20
2019-02-17T17:33:11.407Z,15.57
2019-02-17T17:35:41.280Z,15.90
2019-02-17T17:38:11.148Z,15.00
2019-02-17T17:40:40.977Z,20.27
2019-02-17T17:43:10.732Z,34.73
2019-02-17T17:45:43.252Z,29.50
2019-02-17T17:48:13.218Z,18.07
2019-02-17T17:50:56.502Z,11.83
2019-02-17T17:53:26.317Z,10.27
2019-02-17T17:55:56.219Z,10.43
2019-02-17T17:58:26.020Z,10.73
2019-02-17T18:00:55.867Z,10.33
2019-02-17T18:03:30.999Z,10.27
2019-02-17T18:06:01.582Z,9.15
2019-02-17T18:08:31.430Z,8.30
2019-02-17T18:11:01.255Z,7.10
2019-02-17T18:13:32.916Z,7.97
2019-02-17T18:16:02.887Z,9.50
2019-02-17T18:18:32.650Z,8.97
2019-02-17T18:21:03.592Z,8.73
2019-02-17T18:23:33.387Z,8.77
2019-02-17T18:26:03.228Z,8.77
2019-02-17T18:28:33.729Z,8.80
2019-02-17T18:31:03.955Z,8.20
2019-02-17T18:33:33.870Z,8.03
2019-02-17T18:36:05.631Z,9.07
2019-02-17T18:38:37.437Z,8.03
2019-02-17T18:41:07.299Z,8.90
2019-02-17T18:43:39.679Z,9.50
2019-02-17T18:46:09.612Z,9.33
2019-02-17T18:48:41.711Z,10.10
2019-02-17T18:51:12.946Z,8.43
2019-02-17T18:53:42.821Z,9.00
2019-02-17T18:56:14.628Z,9.67
2019-02-17T18:58:45.380Z,7.80
2019-02-17T19:01:17.709Z,11.90
2019-02-17T19:03:53.924Z,9.67
2019-02-17T19:06:25.397Z,13.00
2019-02-17T19:08:57.044Z,12.83
2019-02-17T19:11:27.829Z,8.80
2019-02-17T19:14:00.771Z,8.20
2019-02-17T19:16:32.658Z,8.67
2019-02-17T19:19:04.744Z,9.50
2019-02-17T19:21:36.677Z,10.10
2019-02-17T19:24:07.311Z,9.83
2019-02-17T19:26:38.503Z,7.23
2019-02-17T19:29:32.323Z,7.60
2019-02-17T19:32:05.632Z,6.87
2019-02-17T19:34:37.940Z,5.80
2019-02-17T19:37:10.132Z,6.77
2019-02-17T19:39:41.278Z,7.10
2019-02-17T19:42:17.369Z,6.30
2019-02-17T19:44:48.514Z,7.17
2019-02-17T19:47:24.975Z,7.13
2019-02-17T19:49:55.826Z,6.63
2019-02-17T19:52:33.780Z,6.67
2019-02-17T19:55:12.295Z,6.10
2019-02-17T19:57:50.633Z,6.50
2019-02-17T20:00:22.589Z,7.20
2019-02-17T20:03:03.586Z,7.37
2019-02-17T20:05:40.808Z,5.87
2019-02-17T20:08:11.444Z,6.10
2019-02-17T20:10:41.328Z,7.70
2019-02-17T20:13:11.619Z,9.80
2019-02-17T20:15:41.643Z,8.60
2019-02-17T20:18:11.734Z,5.93
2019-02-17T20:20:41.599Z,6.80
2019-02-17T20:23:14.672Z,9.03
2019-02-17T20:25:44.502Z,9.87
2019-02-17T20:28:14.488Z,8.90
2019-02-17T20:30:44.387Z,9.77
2019-02-17T20:33:14.454Z,10.03
2019-02-17T20:35:45.364Z,9.07
2019-02-17T20:38:15.514Z,9.27
2019-02-17T20:40:45.417Z,9.57
2019-02-17T20:43:16.761Z,9.40
2019-02-17T20:45:46.644Z,15.73
2019-02-17T20:48:17.905Z,7.57
2019-02-17T20:50:48.647Z,7.40
2019-02-17T20:53:22.207Z,6.90
2019-02-17T20:55:51.991Z,7.40
2019-02-17T20:58:23.383Z,8.17
2019-02-17T21:00:55.093Z,9.73
2019-02-17T21:03:31.294Z,9.90
2019-02-17T21:06:12.792Z,10.40
2019-02-17T21:08:42.251Z,11.63
2019-02-17T21:11:12.168Z,12.40
2019-02-17T21:13:45.214Z,11.80
2019-02-17T21:16:15.119Z,12.07
2019-02-17T21:18:50.608Z,11.83
2019-02-17T21:21:28.139Z,10.37
2019-02-17T21:24:02.975Z,10.47
2019-02-17T21:26:41.829Z,10.27
2019-02-17T21:29:17.189Z,13.90
2019-02-17T21:32:01.997Z,20.70
2019-02-17T21:34:38.765Z,9.50
2019-02-17T21:37:18.688Z,16.33
2019-02-17T21:39:56.827Z,12.90
2019-02-17T21:42:37.396Z,11.38
2019-02-17T21:45:11.936Z,12.50
2019-02-17T21:47:47.095Z,11.90
2019-02-17T21:50:24.545Z,10.77
2019-02-17T21:52:59.960Z,10.03
2019-02-17T21:55:29.904Z,11.20
2019-02-17T21:58:07.045Z,10.03
2019-02-17T22:00:40.965Z,11.67
2019-02-17T22:03:21.471Z,14.10
2019-02-17T22:05:57.988Z,12.07
2019-02-17T22:08:37.244Z,13.73
2019-02-17T22:11:15.749Z,14.90
2019-02-17T22:13:55.291Z,15.17
2019-02-17T22:16:33.084Z,14.03
2019-02-17T22:19:15.413Z,14.30
2019-02-17T22:22:13.129Z,13.80
2019-02-17T22:24:52.825Z,14.73
2019-02-17T22:27:36.974Z,14.53
2019-02-17T22:30:17.403Z,15.43
2019-02-17T22:32:52.871Z,14.63
2019-02-17T22:35:31.874Z,14.33
2019-02-17T22:38:08.440Z,14.80
2019-02-17T22:40:45.128Z,14.73
2019-02-17T22:43:20.512Z,14.90
2019-02-17T22:46:00.918Z,12.20
2019-02-17T22:48:35.805Z,15.17
2019-02-17T22:51:45.864Z,10.30
2019-02-17T22:54:48.681Z,9.97
2019-02-17T22:57:41.275Z,9.47
2019-02-17T23:00:38.518Z,8.87
2019-02-17T23:03:11.497Z,10.50
2019-02-17T23:05:45.202Z,9.97
2019-02-17T23:08:16.184Z,10.17
2019-02-17T23:10:48.605Z,9.40
2019-02-17T23:13:18.579Z,17.23
2019-02-17T23:15:55.656Z,18.23
2019-02-17T23:18:27.832Z,22.00
2019-02-17T23:20:57.597Z,14.13
2019-02-17T23:23:28.522Z,18.57
2019-02-17T23:26:09.047Z,15.00
2019-02-17T23:28:40.803Z,13.10
2019-02-17T23:31:11.575Z,16.33
2019-02-17T23:33:42.314Z,13.43
2019-02-17T23:36:16.311Z,13.70
2019-02-17T23:38:47.847Z,13.20
2019-02-17T23:41:21.494Z,13.10
2019-02-17T23:43:51.326Z,11.80
2019-02-17T23:46:21.086Z,10.50
2019-02-17T23:48:55.495Z,11.17
2019-02-17T23:51:26.846Z,11.30
2019-02-17T23:53:58.485Z,11.83
2019-02-17T23:56:33.715Z,11.30
2019-02-17T23:59:06.552Z,11.43
